createdAt,value
2023-03-17T00:00:19.762Z,510.00
2023-03-17T00:01:19.769Z,508.00
2023-03-17T00:02:19.790Z,510.00
2023-03-17T00:03:19.715Z,511.00
2023-03-17T00:04:19.707Z,512.00
2023-03-17T00:05:19.689Z,501.00
2023-03-17T00:06:19.676Z,510.00
2023-03-17T00:07:19.644Z,509.00
2023-03-17T00:08:19.632Z,509.00
2023-03-17T00:09:19.594Z,510.00
2023-03-17T00:10:19.591Z,508.00
2023-03-17T00:11:19.576Z,510.00
2023-03-17T00:12:19.569Z,513.00
2023-03-17T00:13:19.554Z,509.00
2023-03-17T00:14:19.548Z,510.00
2023-03-17T00:15:19.545Z,512.00
2023-03-17T00:16:19.579Z,510.00
2023-03-17T00:17:19.523Z,514.00
2023-03-17T00:18:19.512Z,514.00
2023-03-17T00:19:19.480Z,512.00
2023-03-17T00:20:19.490Z,511.00
2023-03-17T00:21:19.468Z,515.00
2023-03-17T00:22:19.454Z,507.00
2023-03-17T00:23:19.426Z,505.00
2023-03-17T00:24:19.423Z,507.00
2023-03-17T00:25:19.404Z,512.00
2023-03-17T00:26:19.393Z,509.00
2023-03-17T00:27:19.389Z,508.00
2023-03-17T00:28:19.371Z,510.00
2023-03-17T00:29:19.343Z,509.00
2023-03-17T00:30:19.334Z,508.00
2023-03-17T00:31:19.395Z,501.00
2023-03-17T00:32:19.316Z,509.00
2023-03-17T00:33:19.286Z,511.00
2023-03-17T00:34:19.292Z,507.00
2023-03-17T00:35:19.246Z,511.00
2023-03-17T00:36:19.249Z,511.00
2023-03-17T00:37:19.215Z,511.00
2023-03-17T00:38:19.208Z,508.00
2023-03-17T00:39:19.198Z,503.00
2023-03-17T00:40:19.186Z,508.00
2023-03-17T00:41:19.154Z,502.00
2023-03-17T00:42:19.139Z,513.00
2023-03-17T00:49:19.056Z,510.00
2023-03-17T00:50:19.021Z,511.00
2023-03-17T00:51:19.015Z,511.00
2023-03-17T00:52:18.999Z,512.00
2023-03-17T00:53:18.993Z,506.00
2023-03-17T00:54:18.965Z,506.00
2023-03-17T00:55:18.951Z,510.00
2023-03-17T00:56:18.933Z,506.00
2023-03-17T00:57:18.932Z,506.00
2023-03-17T00:58:18.906Z,511.00
2023-03-17T00:59:19.435Z,512.00
2023-03-17T01:00:18.867Z,510.00
2023-03-17T01:01:18.938Z,507.00
2023-03-17T01:02:18.922Z,506.00
2023-03-17T01:03:18.855Z,508.00
2023-03-17T01:04:18.811Z,510.00
2023-03-17T01:05:18.803Z,508.00
2023-03-17T01:06:18.779Z,511.00
2023-03-17T01:07:18.779Z,511.00
2023-03-17T01:08:18.755Z,508.00
2023-03-17T01:09:18.729Z,510.00
2023-03-17T01:10:18.730Z,509.00
2023-03-17T01:11:18.961Z,513.00
2023-03-17T01:12:18.693Z,511.00
2023-03-17T01:13:18.685Z,509.00
2023-03-17T01:14:18.653Z,513.00
2023-03-17T01:15:18.649Z,508.00
2023-03-17T01:16:18.719Z,510.00
2023-03-17T01:17:18.610Z,512.00
2023-03-17T01:18:18.652Z,512.00
2023-03-17T01:19:18.591Z,511.00
2023-03-17T01:20:18.562Z,507.00
2023-03-17T01:21:18.559Z,507.00
2023-03-17T01:22:18.543Z,510.00
2023-03-17T01:23:18.537Z,513.00
2023-03-17T01:24:18.500Z,506.00
2023-03-17T01:25:18.506Z,504.00
2023-03-17T01:26:18.480Z,511.00
2023-03-17T01:27:18.443Z,512.00
2023-03-17T01:28:18.484Z,511.00
2023-03-17T01:29:18.417Z,512.00
2023-03-17T01:30:18.420Z,510.00
2023-03-17T01:31:18.410Z,503.00
2023-03-17T01:32:18.368Z,511.00
2023-03-17T01:33:18.368Z,509.00
2023-03-17T01:34:18.342Z,513.00
2023-03-17T01:35:18.320Z,515.00
2023-03-17T01:36:18.313Z,510.00
2023-03-17T01:37:18.301Z,512.00
2023-03-17T01:38:18.296Z,514.00
2023-03-17T01:39:18.279Z,515.00
2023-03-17T01:40:18.268Z,510.00
2023-03-17T01:41:18.242Z,510.00
2023-03-17T01:42:18.223Z,514.00
2023-03-17T01:43:18.215Z,510.00
2023-03-17T01:44:18.203Z,514.00
2023-03-17T01:45:18.177Z,511.00
2023-03-17T01:46:18.162Z,511.00
2023-03-17T01:47:18.152Z,510.00
2023-03-17T01:48:18.153Z,507.00
2023-03-17T01:49:18.105Z,509.00
2023-03-17T01:50:18.118Z,510.00
2023-03-17T01:51:18.086Z,506.00
2023-03-17T01:52:18.054Z,508.00
2023-03-17T01:53:18.055Z,505.00
2023-03-17T01:54:18.034Z,504.00
2023-03-17T01:55:18.015Z,505.00
2023-03-17T01:56:17.996Z,507.00
2023-03-17T01:57:17.964Z,508.00
2023-03-17T01:58:17.961Z,509.00
2023-03-17T01:59:17.914Z,509.00
2023-03-17T02:00:17.944Z,506.00
2023-03-17T02:01:17.925Z,505.00
2023-03-17T02:02:17.889Z,506.00
2023-03-17T02:03:17.851Z,507.00
2023-03-17T02:04:17.930Z,503.00
2023-03-17T02:05:17.843Z,506.00
2023-03-17T02:06:17.813Z,502.00
2023-03-17T02:07:17.846Z,501.00
2023-03-17T02:08:17.816Z,508.00
2023-03-17T02:09:17.789Z,500.00
2023-03-17T02:10:17.765Z,501.00
2023-03-17T02:11:17.771Z,500.00
2023-03-17T02:12:17.736Z,506.00
2023-03-17T13:54:09.278Z,4117.00
2023-03-17T13:55:09.285Z,4141.00
2023-03-17T13:56:09.266Z,4082.00
2023-03-17T13:57:09.211Z,4095.00
2023-03-17T13:58:11.318Z,4086.00
2023-03-17T13:59:09.108Z,4112.00
2023-03-17T14:00:09.171Z,4102.00
2023-03-17T14:01:09.124Z,4083.00
2023-03-17T14:02:09.026Z,4046.00
2023-03-17T14:03:08.997Z,4013.00
2023-03-17T14:04:11.060Z,4002.00
2023-03-17T14:05:08.945Z,4005.00
2023-03-17T14:06:08.937Z,4024.00
2023-03-17T14:07:08.898Z,4062.00
2023-03-17T14:08:08.854Z,4106.00
2023-03-17T14:09:08.818Z,4008.00
2023-03-17T14:10:10.687Z,4027.00
2023-03-17T14:11:08.742Z,4076.00
2023-03-17T14:12:08.718Z,4140.00
2023-03-17T14:13:08.672Z,4255.00
2023-03-17T14:14:08.635Z,4274.00
2023-03-17T14:15:08.711Z,4326.00
2023-03-17T14:16:08.580Z,4340.00
2023-03-17T14:17:08.545Z,4352.00
2023-03-17T14:18:08.516Z,4339.00
2023-03-17T14:19:08.459Z,4356.00
2023-03-17T14:20:08.674Z,4340.00
2023-03-17T14:21:11.520Z,4308.00
2023-03-17T14:22:08.381Z,4305.00
2023-03-17T14:23:08.341Z,4299.00
2023-03-17T14:24:08.300Z,4286.00
2023-03-17T14:25:08.323Z,4297.00
2023-03-17T14:26:08.253Z,4307.00
2023-03-17T14:27:08.221Z,4298.00
2023-03-17T14:28:10.752Z,4275.00
2023-03-17T14:29:08.159Z,4276.00
2023-03-17T14:30:08.229Z,4235.00
2023-03-17T14:31:08.155Z,4195.00
2023-03-17T14:32:08.176Z,4228.00
2023-03-17T14:33:08.084Z,4211.00
2023-03-17T14:34:08.012Z,4222.00
2023-03-17T14:35:08.009Z,4146.00
2023-03-17T14:36:08.018Z,4101.00
2023-03-17T14:37:07.969Z,4128.00
2023-03-17T14:38:07.906Z,4157.00
2023-03-17T14:39:07.885Z,4096.00
2023-03-17T14:40:07.927Z,4080.00
2023-03-17T14:41:07.856Z,4107.00
2023-03-17T14:42:07.793Z,4117.00
2023-03-17T14:43:07.789Z,4144.00
2023-03-17T16:34:04.334Z,4498.00
2023-03-17T16:35:06.582Z,4500.00
2023-03-17T16:36:04.337Z,4501.00
2023-03-17T16:37:04.263Z,4495.00
2023-03-17T16:38:04.224Z,4492.00
2023-03-17T16:39:04.213Z,4493.00
2023-03-17T16:40:04.204Z,4495.00
2023-03-17T16:41:04.159Z,4487.00
2023-03-17T16:42:04.137Z,4483.00
2023-03-17T16:43:08.378Z,4478.00
2023-03-17T16:44:05.078Z,4478.00
2023-03-17T16:45:04.079Z,4479.00
2023-03-17T16:46:04.158Z,4479.00
2023-03-17T16:47:04.096Z,4473.00
2023-03-17T16:48:03.989Z,4479.00
2023-03-17T16:49:03.963Z,4480.00
2023-03-17T16:50:03.944Z,4472.00
2023-03-17T16:51:03.885Z,4472.00
2023-03-17T16:52:03.873Z,4467.00
2023-03-17T16:53:03.835Z,4470.00
2023-03-17T16:54:03.824Z,4466.00
2023-03-17T16:55:03.775Z,4449.00
2023-03-17T16:56:03.746Z,4443.00
2023-03-17T16:57:05.012Z,4447.00
2023-03-17T16:58:03.710Z,4443.00
2023-03-17T16:59:03.688Z,4440.00
2023-03-17T17:00:03.665Z,4433.00
2023-03-17T17:01:03.654Z,4440.00
2023-03-17T17:02:03.718Z,4426.00
2023-03-17T17:03:03.640Z,4427.00
2023-03-17T17:04:03.560Z,4430.00
2023-03-17T17:05:03.530Z,4433.00
2023-03-17T17:06:03.520Z,4432.00
2023-03-17T17:07:03.483Z,4423.00
2023-03-17T17:08:03.471Z,4410.00
2023-03-17T17:09:03.413Z,4419.00
2023-03-17T17:10:03.389Z,4390.00
2023-03-17T17:11:03.360Z,4400.00
2023-03-17T17:12:03.349Z,4394.00
2023-03-17T17:13:05.905Z,4390.00
2023-03-17T17:14:03.284Z,4390.00
2023-03-17T17:15:03.258Z,4390.00
2023-03-17T17:16:03.268Z,4394.00
2023-03-17T17:17:03.213Z,4395.00
2023-03-17T17:18:03.210Z,4394.00
2023-03-17T17:19:03.166Z,4395.00
2023-03-17T17:20:03.147Z,4385.00
2023-03-17T17:21:03.112Z,4362.00
2023-03-17T17:22:03.093Z,4379.00
2023-03-17T17:23:03.063Z,4375.00
2023-03-17T17:24:03.044Z,4359.00
2023-03-17T17:25:03.015Z,4362.00
2023-03-17T17:26:03.000Z,4352.00
2023-03-17T17:27:02.958Z,4333.00
2023-03-17T17:28:02.935Z,4334.00
2023-03-17T17:29:02.888Z,4335.00
2023-03-17T17:30:02.877Z,4339.00
2023-03-17T17:31:02.907Z,4349.00
2023-03-17T17:32:02.803Z,4349.00
2023-03-17T17:33:02.885Z,4334.00
2023-03-17T17:34:02.758Z,4342.00
2023-03-17T17:35:02.705Z,4344.00
2023-03-17T17:36:02.739Z,4329.00
2023-03-17T17:37:02.732Z,4315.00
2023-03-17T17:38:02.782Z,4313.00
2023-03-17T17:39:02.645Z,4306.00
2023-03-17T17:40:02.615Z,4318.00
2023-03-17T17:41:02.539Z,4305.00
2023-03-17T17:42:02.625Z,4303.00
2023-03-17T17:43:02.502Z,4301.00
2023-03-17T17:44:02.457Z,4295.00
2023-03-17T17:45:02.431Z,4288.00
2023-03-17T17:46:02.417Z,4270.00
2023-03-17T17:47:02.482Z,4285.00
2023-03-17T17:48:02.339Z,4272.00
2023-03-17T17:49:02.315Z,4280.00
2023-03-17T17:50:02.288Z,4275.00
2023-03-17T17:51:02.229Z,4257.00
2023-03-17T17:52:02.213Z,4261.00
2023-03-17T17:53:02.174Z,4253.00
2023-03-17T17:54:02.144Z,4238.00
2023-03-17T17:55:02.156Z,4232.00
2023-03-17T17:56:02.083Z,4251.00
2023-03-17T17:57:02.243Z,4235.00
2023-03-17T17:58:02.042Z,4248.00
2023-03-17T17:59:01.999Z,4227.00
2023-03-17T18:00:01.961Z,4230.00
2023-03-17T18:01:01.956Z,4226.00
2023-03-17T18:02:01.890Z,4225.00
2023-03-17T18:03:01.886Z,4221.00
2023-03-17T18:04:01.829Z,4196.00
2023-03-17T18:05:01.797Z,4204.00
2023-03-17T18:06:01.777Z,4201.00
2023-03-17T18:07:01.733Z,4194.00
2023-03-17T18:08:01.685Z,4200.00
2023-03-17T18:09:01.656Z,4195.00
2023-03-17T18:10:01.629Z,4184.00
2023-03-17T18:11:01.595Z,4173.00
2023-03-17T18:12:01.590Z,4186.00
2023-03-17T18:13:01.570Z,4185.00
2023-03-17T18:14:01.546Z,4178.00
2023-03-17T18:15:01.504Z,4158.00
2023-03-17T18:16:01.508Z,4157.00
2023-03-17T18:17:01.436Z,4166.00
2023-03-17T18:18:01.434Z,4145.00
2023-03-17T18:19:01.408Z,4141.00
2023-03-17T18:20:01.387Z,4162.00
2023-03-17T18:21:01.363Z,4143.00
2023-03-17T18:22:01.331Z,4128.00
2023-03-17T18:23:01.351Z,4137.00
2023-03-17T18:24:01.358Z,4133.00
2023-03-17T18:25:01.299Z,4134.00
2023-03-17T18:26:01.249Z,4120.00
2023-03-17T18:27:01.234Z,4131.00
2023-03-17T18:28:01.237Z,4109.00
2023-03-17T18:29:01.218Z,4127.00
2023-03-17T18:30:01.174Z,4116.00
2023-03-17T18:31:01.141Z,4110.00
2023-03-17T18:32:01.226Z,4110.00
2023-03-17T18:33:01.154Z,4100.00
2023-03-17T18:34:01.097Z,4098.00
2023-03-17T18:35:01.078Z,4091.00
2023-03-17T18:36:01.076Z,4099.00
2023-03-17T18:37:01.023Z,4103.00
2023-03-17T18:38:01.014Z,4079.00
2023-03-17T18:39:00.997Z,4083.00
2023-03-17T18:40:13.407Z,4080.00
2023-03-17T18:41:01.966Z,4081.00
2023-03-17T18:42:00.925Z,4083.00
2023-03-17T18:43:00.906Z,4086.00
2023-03-17T18:44:00.888Z,4081.00
2023-03-17T18:45:00.871Z,4079.00
2023-03-17T18:46:00.901Z,4071.00
2023-03-17T18:47:00.816Z,4071.00
2023-03-17T18:48:00.802Z,4069.00
2023-03-17T18:49:00.784Z,4051.00
2023-03-17T18:50:00.741Z,4062.00
2023-03-17T18:51:00.725Z,4058.00
2023-03-17T18:52:00.704Z,4049.00
2023-03-17T18:53:00.692Z,4042.00
2023-03-17T18:54:00.675Z,4044.00
2023-03-17T18:55:00.634Z,4038.00
2023-03-17T18:56:00.598Z,4024.00
2023-03-17T18:57:00.595Z,4037.00
2023-03-17T18:58:00.595Z,4038.00
2023-03-17T18:59:00.547Z,4037.00
2023-03-17T19:00:00.532Z,4038.00
2023-03-17T19:01:00.595Z,4038.00
2023-03-17T19:02:00.516Z,4038.00
2023-03-17T19:03:00.514Z,4039.00
2023-03-17T19:04:00.460Z,4042.00
2023-03-17T19:05:00.426Z,4040.00
2023-03-17T19:06:00.411Z,4038.00
2023-03-17T19:07:00.385Z,4040.00
2023-03-17T19:08:00.385Z,4039.00
2023-03-17T19:09:00.353Z,4041.00
2023-03-17T19:10:00.335Z,4045.00
2023-03-17T19:11:00.306Z,4038.00
2023-03-17T19:12:00.268Z,4037.00
2023-03-17T19:13:00.247Z,4039.00
2023-03-17T19:14:00.245Z,4028.00
2023-03-17T19:15:00.210Z,4026.00
2023-03-17T19:16:00.172Z,4038.00
2023-03-17T19:17:00.224Z,4038.00
2023-03-17T19:18:00.174Z,4032.00
2023-03-17T19:19:00.110Z,4021.00
2023-03-17T19:20:00.112Z,4024.00
2023-03-17T19:21:00.082Z,4013.00
2023-03-17T19:22:00.037Z,4012.00
2023-03-17T19:23:00.006Z,4014.00
2023-03-17T19:24:00.002Z,3998.00
2023-03-17T19:24:59.983Z,4015.00
2023-03-17T19:25:59.954Z,4005.00
2023-03-17T19:26:59.925Z,3985.00
2023-03-17T19:27:59.914Z,3984.00
2023-03-17T19:28:59.875Z,3999.00
2023-03-17T19:29:59.872Z,3989.00
2023-03-17T19:30:59.848Z,3979.00
2023-03-17T19:31:59.826Z,3985.00
2023-03-17T19:32:59.834Z,3963.00
2023-03-17T19:33:59.792Z,3968.00
2023-03-17T19:34:59.776Z,3978.00
2023-03-17T19:35:59.813Z,3967.00
2023-03-17T19:37:01.774Z,3957.00
2023-03-17T19:37:59.748Z,3945.00
2023-03-17T19:38:59.725Z,3955.00
2023-03-17T19:39:59.743Z,3971.00
2023-03-17T19:40:59.661Z,3947.00
2023-03-17T19:41:59.667Z,3958.00
2023-03-17T19:42:59.615Z,3957.00
2023-03-17T19:43:59.568Z,3950.00
2023-03-17T19:44:59.562Z,3930.00
2023-03-17T19:45:59.530Z,3932.00
2023-03-17T19:46:59.510Z,3933.00
2023-03-17T19:47:59.471Z,3930.00
2023-03-17T19:48:59.486Z,3921.00
2023-03-17T19:49:59.431Z,3927.00
2023-03-17T19:50:59.403Z,3919.00
2023-03-17T19:51:59.381Z,3911.00
2023-03-17T19:52:59.345Z,3907.00
2023-03-17T19:53:59.309Z,3900.00
2023-03-17T19:54:59.295Z,3909.00
2023-03-17T19:55:59.274Z,3906.00
2023-03-17T19:56:59.277Z,3900.00
2023-03-17T19:57:59.235Z,3910.00
2023-03-17T19:58:59.216Z,3900.00
2023-03-17T19:59:59.199Z,3890.00
2023-03-17T20:00:59.165Z,3879.00
2023-03-17T20:01:59.218Z,3904.00
2023-03-17T20:02:59.140Z,3880.00
2023-03-17T20:03:59.176Z,3878.00
2023-03-17T20:04:59.116Z,3857.00
2023-03-17T20:05:59.084Z,3855.00
2023-03-17T20:06:59.059Z,3860.00
2023-03-17T20:07:59.028Z,3877.00
2023-03-17T20:08:59.009Z,3855.00
2023-03-17T20:09:59.008Z,3860.00
2023-03-17T20:10:58.960Z,3857.00
2023-03-17T20:11:58.931Z,3874.00
2023-03-17T20:12:58.926Z,3852.00
2023-03-17T20:13:58.909Z,3849.00
2023-03-17T20:14:58.883Z,3842.00
2023-03-17T20:15:58.861Z,3847.00
2023-03-17T20:16:58.832Z,3848.00
2023-03-17T20:17:58.805Z,3849.00
2023-03-17T20:18:58.801Z,3842.00
2023-03-17T20:19:58.778Z,3849.00
2023-03-17T20:20:58.742Z,3845.00
2023-03-17T20:21:58.726Z,3835.00
2023-03-17T20:22:58.698Z,3831.00
2023-03-17T20:23:58.713Z,3837.00
2023-03-17T20:24:58.678Z,3823.00
2023-03-17T20:25:58.667Z,3824.00
2023-03-17T20:26:58.652Z,3823.00
2023-03-17T20:27:58.627Z,3819.00
2023-03-17T20:28:58.593Z,3826.00
2023-03-17T20:29:58.567Z,3833.00
2023-03-17T20:30:58.580Z,3814.00
2023-03-17T20:31:58.539Z,3819.00
2023-03-17T20:32:58.550Z,3810.00
2023-03-17T20:33:58.516Z,3804.00
2023-03-17T20:34:58.468Z,3795.00
2023-03-17T20:35:58.492Z,3779.00
2023-03-17T20:36:58.437Z,3818.00
2023-03-17T20:37:58.406Z,3795.00
2023-03-17T20:38:58.380Z,3807.00
2023-03-17T20:39:58.377Z,3790.00
2023-03-17T20:40:58.354Z,3788.00
2023-03-17T20:41:58.323Z,3788.00
2023-03-17T20:42:58.310Z,3771.00
2023-03-17T20:43:58.285Z,3770.00
2023-03-17T20:44:58.307Z,3760.00
2023-03-17T20:45:58.226Z,3785.00
2023-03-17T20:46:58.288Z,3762.00
2023-03-17T20:47:58.190Z,3750.00
2023-03-17T20:48:58.165Z,3745.00
2023-03-17T20:49:58.142Z,3765.00
2023-03-17T20:50:58.123Z,3742.00
2023-03-17T20:51:58.082Z,3741.00
2023-03-17T20:52:58.063Z,3742.00
2023-03-17T20:53:58.022Z,3744.00
2023-03-17T20:54:58.027Z,3745.00
2023-03-17T20:55:58.020Z,3748.00
2023-03-17T20:56:57.955Z,3756.00
2023-03-17T20:57:57.929Z,3742.00
2023-03-17T20:58:57.892Z,3733.00
2023-03-17T20:59:57.867Z,3734.00
2023-03-17T21:00:57.848Z,3735.00
2023-03-17T21:01:57.866Z,3740.00
2023-03-17T21:02:57.892Z,3738.00
2023-03-17T21:03:57.791Z,3736.00
2023-03-17T21:04:57.769Z,3748.00
2023-03-17T21:05:57.746Z,3752.00
